Time,TemperatureF,DewpointF,PressureIn,WindDirection,WindDirectionDegrees,WindSpeedMPH,WindSpeedGustMPH,Humidity,HourlyPrecipIn,Conditions,Clouds,dailyrainin,SoftwareType,DateUTC
2013-02-08 00:02:00,27.0,19.0,30.12,West,273,4.0,13.0,70,0.00,,,0.00,,2013-02-08 05:02:00,
2013-02-08 00:12:00,27.0,19.0,30.12,West,273,4.0,13.0,70,0.00,,,0.00,,2013-02-08 05:12:00,
2013-02-08 00:22:00,26.0,18.0,30.11,NNW,333,3.0,9.0,71,0.00,,,0.00,,2013-02-08 05:22:00,
2013-02-08 00:32:00,26.0,19.0,30.11,WSW,237,2.0,8.0,74,0.00,,,0.00,,2013-02-08 05:32:00,
2013-02-08 00:42:00,26.0,19.0,30.11,WSW,237,2.0,8.0,74,0.00,,,0.00,,2013-02-08 05:42:00,
2013-02-08 00:52:00,26.0,19.0,30.11,NNE,32,4.0,12.0,76,0.00,,,0.00,,2013-02-08 05:52:00,
2013-02-08 01:02:00,26.0,20.0,30.09,NE,53,3.0,6.0,78,0.00,,,0.00,,2013-02-08 06:02:00,
2013-02-08 01:11:00,26.0,20.0,30.09,NE,53,3.0,6.0,78,0.00,,,0.00,,2013-02-08 06:11:00,
2013-02-08 01:21:00,26.0,20.0,30.09,SE,124,3.0,12.0,79,0.00,,,0.00,,2013-02-08 06:21:00,
2013-02-08 01:32:00,26.0,21.0,30.08,NW,319,3.0,6.0,81,0.00,,,0.00,,2013-02-08 06:32:00,
2013-02-08 01:42:00,26.0,21.0,30.08,NW,319,3.0,6.0,81,0.00,,,0.00,,2013-02-08 06:42:00,
2013-02-08 01:51:00,26.0,21.0,30.07,SE,133,5.0,13.0,82,0.00,,,0.00,,2013-02-08 06:51:00,
2013-02-08 02:01:00,26.0,22.0,30.07,East,84,3.0,10.0,83,0.00,,,0.00,,2013-02-08 07:01:00,
2013-02-08 02:11:00,26.0,22.0,30.07,East,84,3.0,10.0,83,0.00,,,0.00,,2013-02-08 07:11:00,
2013-02-08 02:22:00,26.0,22.0,30.06,NE,43,2.0,7.0,83,0.00,,,0.00,,2013-02-08 07:22:00,
2013-02-08 02:32:00,26.0,22.0,30.06,WSW,247,2.0,10.0,84,0.00,,,0.00,,2013-02-08 07:32:00,
2013-02-08 02:42:00,26.0,22.0,30.06,ENE,72,1.0,14.0,84,0.00,,,0.00,,2013-02-08 07:42:00,
2013-02-08 02:52:00,26.0,22.0,30.06,ENE,72,1.0,14.0,84,0.00,,,0.00,,2013-02-08 07:52:00,
2013-02-08 03:01:00,25.0,21.0,30.05,NNW,340,1.0,9.0,86,0.00,,,0.00,,2013-02-08 08:01:00,
2013-02-08 03:11:00,25.0,21.0,30.04,NNW,328,3.0,9.0,86,0.00,,,0.00,,2013-02-08 08:11:00,
2013-02-08 03:21:00,25.0,21.0,30.04,NNW,328,3.0,9.0,86,0.00,,,0.00,,2013-02-08 08:21:00,
2013-02-08 03:32:00,25.0,22.0,30.03,SE,146,1.0,9.0,87,0.00,,,0.00,,2013-02-08 08:32:00,
2013-02-08 03:42:00,25.0,22.0,30.03,SE,146,1.0,9.0,87,0.00,,,0.00,,2013-02-08 08:42:00,
2013-02-08 03:52:00,25.0,22.0,30.03,ESE,108,1.0,6.0,87,0.00,,,0.00,,2013-02-08 08:52:00,
2013-02-08 04:03:00,26.0,23.0,30.02,NW,318,1.0,4.0,87,0.00,,,0.00,,2013-02-08 09:03:00,
2013-02-08 04:11:00,26.0,23.0,30.02,NW,318,1.0,4.0,87,0.00,,,0.00,,2013-02-08 09:11:00,
2013-02-08 04:21:00,26.0,23.0,30.01,NW,312,2.0,8.0,88,0.00,,,0.00,,2013-02-08 09:21:00,
2013-02-08 04:32:00,26.0,23.0,30.01,SE,129,1.0,6.0,88,0.00,,,0.00,,2013-02-08 09:32:00,
2013-02-08 04:42:00,26.0,23.0,30.01,SE,129,1.0,6.0,88,0.00,,,0.00,,2013-02-08 09:42:00,
2013-02-08 04:52:00,26.0,23.0,30.01,WSW,248,2.0,4.0,88,0.00,,,0.00,,2013-02-08 09:52:00,
2013-02-08 05:01:00,26.0,23.0,30.00,South,186,0.0,2.0,88,0.00,,,0.00,,2013-02-08 10:01:00,
2013-02-08 05:12:00,26.0,23.0,30.00,South,186,0.0,2.0,88,0.00,,,0.00,,2013-02-08 10:12:00,
2013-02-08 05:22:00,26.0,23.0,29.99,NE,34,0.0,4.0,88,0.00,,,0.00,,2013-02-08 10:22:00,
2013-02-08 05:32:00,27.0,24.0,29.99,WNW,301,1.0,3.0,89,0.00,,,0.00,,2013-02-08 10:32:00,
2013-02-08 05:42:00,27.0,24.0,29.99,WNW,301,1.0,3.0,89,0.00,,,0.00,,2013-02-08 10:42:00,
2013-02-08 05:52:00,27.0,24.0,29.98,SE,136,1.0,3.0,89,0.00,,,0.00,,2013-02-08 10:52:00,
2013-02-08 06:01:00,27.0,24.0,29.98,WNW,288,1.0,4.0,90,0.00,,,0.00,,2013-02-08 11:01:00,
2013-02-08 06:11:00,27.0,24.0,29.98,WNW,288,1.0,4.0,90,0.00,,,0.00,,2013-02-08 11:11:00,
2013-02-08 06:21:00,27.0,25.0,29.97,SW,235,1.0,3.0,91,0.00,,,0.00,,2013-02-08 11:21:00,
2013-02-08 06:32:00,27.0,25.0,29.97,NNW,340,2.0,4.0,92,0.00,,,0.00,,2013-02-08 11:32:00,
2013-02-08 06:42:00,27.0,25.0,29.97,NNW,340,2.0,4.0,92,0.00,,,0.00,,2013-02-08 11:42:00,
2013-02-08 06:52:00,27.0,25.0,29.97,NW,304,4.0,8.0,92,0.00,,,0.00,,2013-02-08 11:52:00,
2013-02-08 07:02:00,27.0,25.0,29.96,SSW,194,1.0,4.0,93,0.00,,,0.00,,2013-02-08 12:02:00,
2013-02-08 07:11:00,27.0,25.0,29.96,SSW,194,1.0,4.0,93,0.00,,,0.00,,2013-02-08 12:11:00,
2013-02-08 07:22:00,28.0,26.0,29.95,ESE,118,1.0,7.0,93,0.00,,,0.00,,2013-02-08 12:22:00,
2013-02-08 07:33:00,28.0,27.0,29.95,NNE,15,2.0,6.0,94,0.00,,,0.00,,2013-02-08 12:33:00,
2013-02-08 07:42:00,28.0,27.0,29.95,NNE,15,2.0,6.0,94,0.00,,,0.00,,2013-02-08 12:42:00,
2013-02-08 07:52:00,28.0,27.0,29.94,NNW,348,2.0,6.0,94,0.00,,,0.00,,2013-02-08 12:52:00,
2013-02-08 08:02:00,28.0,27.0,29.94,West,269,1.0,6.0,94,0.00,,,0.00,,2013-02-08 13:02:00,
2013-02-08 08:12:00,28.0,27.0,29.94,West,269,1.0,6.0,94,0.00,,,0.00,,2013-02-08 13:12:00,
2013-02-08 08:22:00,29.0,27.0,29.94,NNE,23,0.0,5.0,94,0.00,,,0.00,,2013-02-08 13:22:00,
2013-02-08 08:32:00,29.0,28.0,29.93,SSE,150,1.0,3.0,95,0.00,,,0.00,,2013-02-08 13:32:00,
2013-02-08 08:42:00,29.0,28.0,29.93,SSE,150,1.0,3.0,95,0.00,,,0.00,,2013-02-08 13:42:00,
2013-02-08 08:52:00,29.0,28.0,29.93,NE,46,1.0,5.0,95,0.00,,,0.00,,2013-02-08 13:52:00,
2013-02-08 09:02:00,29.0,28.0,29.93,North,8,0.0,5.0,95,0.00,,,0.00,,2013-02-08 14:02:00,
2013-02-08 09:11:00,29.0,28.0,29.93,North,8,0.0,5.0,95,0.00,,,0.00,,2013-02-08 14:11:00,
2013-02-08 09:22:00,29.0,28.0,29.91,ENE,64,1.0,5.0,95,0.00,,,0.00,,2013-02-08 14:22:00,
2013-02-08 09:32:00,29.0,28.0,29.91,ENE,75,1.0,5.0,95,0.00,,,0.00,,2013-02-08 14:32:00,
2013-02-08 09:42:00,29.0,28.0,29.91,ENE,75,1.0,5.0,95,0.00,,,0.00,,2013-02-08 14:42:00,
2013-02-08 09:52:00,29.0,28.0,29.91,SE,127,2.0,7.0,95,0.00,,,0.00,,2013-02-08 14:52:00,
2013-02-08 10:02:00,30.0,29.0,29.90,West,270,0.0,3.0,95,0.00,,,0.00,,2013-02-08 15:02:00,
2013-02-08 10:12:00,30.0,29.0,29.90,West,270,0.0,3.0,95,0.00,,,0.00,,2013-02-08 15:12:00,
2013-02-08 10:22:00,30.0,29.0,29.89,SSW,200,1.0,5.0,95,0.00,,,0.00,,2013-02-08 15:22:00,
2013-02-08 10:32:00,30.0,29.0,29.88,NE,48,2.0,4.0,95,0.00,,,0.00,,2013-02-08 15:32:00,
2013-02-08 10:42:00,30.0,29.0,29.88,NE,48,2.0,4.0,95,0.00,,,0.00,,2013-02-08 15:42:00,
2013-02-08 10:52:00,30.0,29.0,29.88,NE,40,0.0,6.0,95,0.00,,,0.00,,2013-02-08 15:52:00,
2013-02-08 11:02:00,30.0,29.0,29.86,WNW,285,2.0,5.0,95,0.00,,,0.00,,2013-02-08 16:02:00,
2013-02-08 11:11:00,30.0,29.0,29.86,WNW,285,2.0,5.0,95,0.00,,,0.00,,2013-02-08 16:11:00,
2013-02-08 11:22:00,31.0,30.0,29.85,South,178,1.0,7.0,95,0.00,,,0.00,,2013-02-08 16:22:00,
2013-02-08 11:32:00,31.0,30.0,29.85,ESE,117,3.0,11.0,95,0.00,,,0.00,,2013-02-08 16:32:00,
2013-02-08 11:42:00,31.0,30.0,29.85,ESE,117,3.0,11.0,95,0.00,,,0.00,,2013-02-08 16:42:00,
2013-02-08 11:52:00,31.0,30.0,29.84,SW,222,1.0,6.0,95,0.00,,,0.00,,2013-02-08 16:52:00,
2013-02-08 12:04:00,31.0,30.0,29.81,NE,45,2.0,6.0,95,0.00,,,0.00,,2013-02-08 17:04:00,
2013-02-08 12:12:00,31.0,30.0,29.81,NE,45,2.0,6.0,95,0.00,,,0.00,,2013-02-08 17:12:00,
2013-02-08 12:23:00,32.0,31.0,29.81,NNE,18,2.0,5.0,95,0.00,,,0.00,,2013-02-08 17:23:00,
2013-02-08 12:33:00,32.0,31.0,29.79,NW,308,2.0,7.0,95,0.00,,,0.00,,2013-02-08 17:33:00,
2013-02-08 12:42:00,32.0,31.0,29.79,NW,308,2.0,7.0,95,0.00,,,0.00,,2013-02-08 17:42:00,
2013-02-08 12:52:00,32.0,31.0,29.77,NNW,345,4.0,16.0,95,0.00,,,0.00,,2013-02-08 17:52:00,
2013-02-08 13:02:00,32.0,31.0,29.76,East,89,3.0,8.0,95,0.00,,,0.00,,2013-02-08 18:02:00,
2013-02-08 13:12:00,32.0,31.0,29.76,East,89,3.0,8.0,95,0.00,,,0.00,,2013-02-08 18:12:00,
2013-02-08 13:25:00,32.0,31.0,29.76,South,174,4.0,9.0,95,0.00,,,0.00,,2013-02-08 18:25:00,
2013-02-08 13:35:00,32.0,31.0,29.74,ENE,63,6.0,15.0,95,0.00,,,0.00,,2013-02-08 18:35:00,
2013-02-08 13:43:00,32.0,31.0,29.74,ENE,63,6.0,15.0,95,0.00,,,0.00,,2013-02-08 18:43:00,
2013-02-08 13:53:00,32.0,31.0,29.75,SSE,150,2.0,6.0,95,0.00,,,0.00,,2013-02-08 18:53:00,
2013-02-08 14:02:00,32.0,31.0,29.74,SE,141,1.0,7.0,95,0.00,,,0.00,,2013-02-08 19:02:00,
2013-02-08 14:12:00,32.0,31.0,29.74,SE,141,1.0,7.0,95,0.00,,,0.00,,2013-02-08 19:12:00,
2013-02-08 14:22:00,32.0,31.0,29.73,SE,130,0.0,4.0,95,0.00,,,0.00,,2013-02-08 19:22:00,
2013-02-08 14:32:00,32.0,31.0,29.73,WSW,243,1.0,3.0,95,0.00,,,0.00,,2013-02-08 19:32:00,
2013-02-08 14:42:00,32.0,31.0,29.73,WSW,243,1.0,3.0,95,0.00,,,0.00,,2013-02-08 19:42:00,
2013-02-08 14:52:00,32.0,31.0,29.73,SSE,148,1.0,4.0,95,0.00,,,0.00,,2013-02-08 19:52:00,
2013-02-08 15:02:00,32.0,31.0,29.72,SSW,198,1.0,4.0,95,0.00,,,0.00,,2013-02-08 20:02:00,
2013-02-08 15:12:00,32.0,31.0,29.72,SSW,198,1.0,4.0,95,0.00,,,0.00,,2013-02-08 20:12:00,
2013-02-08 15:22:00,32.0,31.0,29.73,SW,235,0.0,3.0,95,0.00,,,0.00,,2013-02-08 20:22:00,
2013-02-08 15:32:00,32.0,31.0,29.73,WSW,248,0.0,0.0,95,0.00,,,0.00,,2013-02-08 20:32:00,
2013-02-08 15:42:00,32.0,31.0,29.73,WSW,248,0.0,0.0,95,0.00,,,0.00,,2013-02-08 20:42:00,
2013-02-08 15:52:00,32.0,31.0,29.73,SSW,207,0.0,0.0,95,0.00,,,0.00,,2013-02-08 20:52:00,
2013-02-08 16:02:00,32.0,31.0,29.72,SSW,210,0.0,0.0,95,0.00,,,0.00,,2013-02-08 21:02:00,
2013-02-08 16:12:00,32.0,31.0,29.72,SSW,210,0.0,0.0,95,0.00,,,0.00,,2013-02-08 21:12:00,
2013-02-08 16:22:00,32.0,31.0,29.72,SSW,210,0.0,0.0,95,0.00,,,0.00,,2013-02-08 21:22:00,
2013-02-08 16:32:00,33.0,32.0,29.72,SW,226,0.0,0.0,95,0.00,,,0.00,,2013-02-08 21:32:00,
2013-02-08 16:42:00,33.0,32.0,29.72,SW,226,0.0,0.0,95,0.00,,,0.00,,2013-02-08 21:42:00,
2013-02-08 16:52:00,32.0,31.0,29.72,SW,226,0.0,0.0,95,0.00,,,0.00,,2013-02-08 21:52:00,
2013-02-08 17:02:00,32.0,31.0,29.72,East,94,0.0,0.0,95,0.00,,,0.00,,2013-02-08 22:02:00,
2013-02-08 17:11:00,32.0,31.0,29.72,East,94,0.0,0.0,95,0.00,,,0.00,,2013-02-08 22:11:00,
2013-02-08 17:22:00,32.0,31.0,29.72,East,94,0.0,0.0,95,0.00,,,0.00,,2013-02-08 22:22:00,
2013-02-08 17:32:00,32.0,31.0,29.72,NNW,333,0.0,0.0,95,0.00,,,0.00,,2013-02-08 22:32:00,
2013-02-08 17:42:00,32.0,31.0,29.72,NNW,333,0.0,0.0,95,0.00,,,0.00,,2013-02-08 22:42:00,
2013-02-08 17:52:00,32.0,31.0,29.72,ENE,58,0.0,0.0,95,0.00,,,0.00,,2013-02-08 22:52:00,
2013-02-08 18:01:00,32.0,31.0,29.72,ESE,108,0.0,0.0,96,0.00,,,0.00,,2013-02-08 23:01:00,
2013-02-08 18:11:00,32.0,31.0,29.72,ESE,108,0.0,0.0,96,0.00,,,0.00,,2013-02-08 23:11:00,
2013-02-08 18:21:00,32.0,31.0,29.72,ESE,107,0.0,0.0,96,0.00,,,0.00,,2013-02-08 23:21:00,
2013-02-08 18:32:00,32.0,31.0,29.72,SE,136,0.0,0.0,96,0.00,,,0.00,,2013-02-08 23:32:00,
2013-02-08 18:42:00,32.0,31.0,29.72,SE,136,0.0,0.0,96,0.00,,,0.00,,2013-02-08 23:42:00,
2013-02-08 18:52:00,31.0,30.0,29.72,SE,136,0.0,0.0,96,0.00,,,0.00,,2013-02-08 23:52:00,
2013-02-08 19:02:00,31.0,30.0,29.72,SE,136,0.0,0.0,96,0.00,,,0.00,,2013-02-09 00:02:00,
2013-02-08 19:12:00,31.0,30.0,29.72,SE,136,0.0,0.0,96,0.00,,,0.00,,2013-02-09 00:12:00,
2013-02-08 19:22:00,31.0,30.0,29.72,WNW,288,0.0,0.0,96,0.00,,,0.00,,2013-02-09 00:22:00,
2013-02-08 19:32:00,32.0,31.0,29.72,SW,219,2.0,7.0,96,0.00,,,0.00,,2013-02-09 00:32:00,
2013-02-08 19:42:00,32.0,31.0,29.72,SW,219,2.0,7.0,96,0.00,,,0.00,,2013-02-09 00:42:00,
2013-02-08 19:52:00,32.0,31.0,29.73,WSW,249,6.0,8.0,95,0.00,,,0.00,,2013-02-09 00:52:00,
2013-02-08 20:02:00,32.0,30.0,29.73,West,267,3.0,7.0,94,0.00,,,0.00,,2013-02-09 01:02:00,
2013-02-08 20:11:00,32.0,30.0,29.73,West,267,3.0,7.0,94,0.00,,,0.00,,2013-02-09 01:11:00,
2013-02-08 20:22:00,32.0,30.0,29.74,WNW,285,6.0,9.0,93,0.00,,,0.00,,2013-02-09 01:22:00,
2013-02-08 20:32:00,31.0,29.0,29.75,West,277,5.0,9.0,92,0.00,,,0.00,,2013-02-09 01:32:00,
2013-02-08 20:42:00,31.0,29.0,29.75,West,277,5.0,9.0,92,0.00,,,0.00,,2013-02-09 01:42:00,
2013-02-08 20:52:00,31.0,29.0,29.75,WSW,257,6.0,12.0,92,0.00,,,0.00,,2013-02-09 01:52:00,
2013-02-08 21:01:00,30.0,27.0,29.76,West,259,6.0,15.0,90,0.00,,,0.00,,2013-02-09 02:01:00,
2013-02-08 21:11:00,30.0,27.0,29.76,West,259,6.0,15.0,90,0.00,,,0.00,,2013-02-09 02:11:00,
2013-02-08 21:22:00,30.0,27.0,29.77,West,272,8.0,15.0,89,0.00,,,0.00,,2013-02-09 02:22:00,
2013-02-08 21:32:00,29.0,26.0,29.78,NW,304,6.0,19.0,88,0.00,,,0.00,,2013-02-09 02:32:00,
2013-02-08 21:42:00,29.0,26.0,29.78,NW,304,6.0,19.0,88,0.00,,,0.00,,2013-02-09 02:42:00,
2013-02-08 21:52:00,27.0,23.0,29.79,WNW,282,10.0,19.0,86,0.00,,,0.00,,2013-02-09 02:52:00,
2013-02-08 22:02:00,25.0,22.0,29.80,West,263,11.0,25.0,87,0.00,,,0.00,,2013-02-09 03:02:00,
2013-02-08 22:11:00,25.0,22.0,29.80,West,263,11.0,25.0,87,0.00,,,0.00,,2013-02-09 03:11:00,
2013-02-08 22:22:00,24.0,21.0,29.80,West,262,14.0,23.0,88,0.00,,,0.00,,2013-02-09 03:22:00,
2013-02-08 22:32:00,23.0,20.0,29.82,West,259,12.0,24.0,87,0.00,,,0.00,,2013-02-09 03:32:00,
2013-02-08 22:42:00,23.0,20.0,29.82,West,259,12.0,24.0,87,0.00,,,0.00,,2013-02-09 03:42:00,
2013-02-08 22:52:00,22.0,19.0,29.83,WNW,287,8.0,21.0,88,0.00,,,0.00,,2013-02-09 03:52:00,
2013-02-08 23:03:00,21.0,18.0,29.84,NNW,339,7.0,14.0,89,0.00,,,0.00,,2013-02-09 04:03:00,
2013-02-08 23:12:00,21.0,18.0,29.85,WSW,253,10.0,17.0,89,0.00,,,0.00,,2013-02-09 04:12:00,
2013-02-08 23:23:00,21.0,18.0,29.85,WSW,253,10.0,17.0,89,0.00,,,0.00,,2013-02-09 04:23:00,
2013-02-08 23:32:00,20.0,18.0,29.85,WNW,287,9.0,17.0,90,0.00,,,0.00,,2013-02-09 04:32:00,
2013-02-08 23:42:00,20.0,18.0,29.85,WNW,287,9.0,17.0,90,0.00,,,0.00,,2013-02-09 04:42:00,
2013-02-08 23:52:00,19.0,17.0,29.87,West,281,11.0,21.0,90,0.00,,,0.00,,2013-02-09 04:52:00,